createdAt,value
2022-09-30T00:01:47.391Z,10.50
2022-09-30T00:04:19.145Z,10.50
2022-09-30T00:06:48.228Z,10.50
2022-09-30T00:09:17.119Z,10.50
2022-09-30T00:11:46.774Z,10.50
2022-09-30T00:14:18.863Z,10.50
2022-09-30T00:16:47.522Z,10.50
2022-09-30T00:19:16.396Z,10.50
2022-09-30T00:21:45.011Z,10.50
2022-09-30T00:24:13.984Z,10.40
2022-09-30T00:26:42.604Z,10.50
2022-09-30T00:29:11.690Z,10.50
2022-09-30T00:31:40.431Z,10.50
2022-09-30T00:34:11.245Z,10.60
2022-09-30T00:36:51.712Z,10.60
2022-09-30T00:39:22.881Z,10.50
2022-09-30T00:41:54.371Z,10.50
2022-09-30T00:44:54.526Z,10.50
2022-09-30T00:47:47.175Z,10.50
2022-09-30T00:50:27.722Z,10.50
2022-09-30T00:53:10.902Z,10.40
2022-09-30T00:55:54.362Z,10.40
2022-09-30T00:58:49.897Z,10.40
2022-09-30T01:01:19.348Z,10.30
2022-09-30T01:03:50.981Z,10.40
2022-09-30T01:06:21.826Z,10.40
2022-09-30T01:08:50.942Z,10.30
2022-09-30T01:11:19.852Z,10.30
2022-09-30T01:13:51.466Z,10.30
2022-09-30T01:16:34.996Z,10.30
2022-09-30T01:19:33.324Z,10.30
2022-09-30T01:22:33.438Z,10.30
2022-09-30T01:25:05.054Z,10.40
2022-09-30T01:27:57.577Z,10.30
2022-09-30T01:31:01.949Z,10.30
2022-09-30T01:33:42.105Z,10.30
2022-09-30T01:36:22.654Z,10.20
2022-09-30T01:38:56.756Z,10.20
2022-09-30T01:41:28.597Z,10.20
2022-09-30T01:44:21.170Z,10.10
2022-09-30T01:46:55.605Z,10.10
2022-09-30T01:49:33.061Z,10.00
2022-09-30T01:52:07.689Z,10.00
2022-09-30T01:54:48.133Z,9.90
2022-09-30T01:57:19.741Z,9.90
2022-09-30T02:00:04.057Z,9.80
2022-09-30T02:02:35.670Z,9.80
2022-09-30T02:05:10.175Z,9.80
2022-09-30T02:07:41.971Z,9.80
2022-09-30T02:10:19.487Z,9.60
2022-09-30T02:13:00.241Z,9.80
2022-09-30T02:15:31.848Z,9.80
2022-09-30T02:18:06.495Z,9.80
2022-09-30T02:20:38.104Z,9.80
2022-09-30T02:23:15.646Z,9.80
2022-09-30T02:25:47.280Z,9.80
2022-09-30T02:28:18.888Z,9.80
2022-09-30T02:30:50.425Z,9.90
2022-09-30T02:33:22.017Z,9.90
2022-09-30T02:35:57.512Z,9.90
2022-09-30T02:38:31.899Z,9.90
2022-09-30T02:41:06.384Z,9.90
2022-09-30T02:43:35.938Z,9.90
2022-09-30T02:46:26.822Z,9.90
2022-09-30T02:48:58.382Z,9.90
2022-09-30T02:51:32.553Z,10.00
2022-09-30T02:54:22.674Z,10.00
2022-09-30T02:56:56.700Z,10.00
2022-09-30T02:59:26.013Z,10.00
2022-09-30T03:01:54.680Z,9.90
2022-09-30T03:04:29.351Z,9.90
2022-09-30T03:06:58.168Z,9.80
2022-09-30T03:09:28.019Z,9.80
2022-09-30T03:12:08.438Z,9.80
2022-09-30T03:14:40.034Z,9.80
2022-09-30T03:17:29.197Z,9.80
2022-09-30T03:20:21.039Z,9.70
2022-09-30T03:23:13.142Z,9.70
2022-09-30T03:26:17.812Z,9.80
2022-09-30T03:28:49.684Z,9.80
2022-09-30T03:31:24.016Z,9.80
2022-09-30T03:34:01.660Z,9.80
2022-09-30T03:36:41.862Z,9.80
2022-09-30T03:39:30.463Z,9.80
2022-09-30T03:42:16.450Z,9.70
2022-09-30T03:44:47.972Z,9.80
2022-09-30T03:47:19.514Z,9.70
2022-09-30T03:49:51.441Z,9.70
2022-09-30T03:52:20.100Z,9.70
2022-09-30T03:55:00.453Z,9.70
2022-09-30T03:57:30.007Z,9.70
2022-09-30T03:59:59.188Z,9.70
2022-09-30T04:02:28.405Z,9.70
2022-09-30T04:04:56.912Z,9.70
2022-09-30T04:07:25.622Z,9.70
2022-09-30T04:09:54.142Z,9.70
2022-09-30T04:12:23.036Z,9.70
2022-09-30T04:14:51.940Z,9.70
2022-09-30T04:17:20.463Z,9.60
2022-09-30T04:19:49.890Z,9.60
2022-09-30T04:22:18.421Z,9.50
2022-09-30T04:24:47.419Z,9.50
2022-09-30T04:27:15.939Z,9.50
2022-09-30T04:29:44.495Z,9.50
2022-09-30T04:32:13.052Z,9.50
2022-09-30T04:34:41.566Z,9.50
2022-09-30T04:37:11.187Z,9.50
2022-09-30T04:39:40.692Z,9.50
2022-09-30T04:42:09.219Z,9.50
2022-09-30T04:44:37.779Z,9.50
2022-09-30T04:47:06.665Z,9.40
2022-09-30T04:49:35.224Z,9.40
2022-09-30T04:52:03.761Z,9.40
2022-09-30T04:54:32.481Z,9.40
2022-09-30T04:57:01.003Z,9.30
2022-09-30T04:59:29.550Z,9.30
2022-09-30T05:01:58.226Z,9.30
2022-09-30T05:04:27.461Z,9.30
2022-09-30T05:06:56.009Z,9.30
2022-09-30T05:09:24.660Z,9.30
2022-09-30T05:11:54.816Z,9.30
2022-09-30T05:14:23.371Z,9.30
2022-09-30T05:16:51.887Z,9.30
2022-09-30T05:19:20.444Z,9.50
2022-09-30T05:21:49.023Z,9.30
2022-09-30T05:24:17.563Z,9.30
2022-09-30T05:26:46.161Z,9.30
2022-09-30T05:29:14.779Z,9.30
2022-09-30T05:31:43.525Z,9.30
2022-09-30T05:34:12.170Z,9.30
2022-09-30T05:36:40.699Z,9.30
2022-09-30T05:39:09.170Z,9.30
2022-09-30T05:41:38.312Z,9.30
2022-09-30T05:44:09.098Z,9.30
2022-09-30T05:46:37.695Z,9.30
2022-09-30T05:49:06.169Z,9.30
2022-09-30T05:51:34.715Z,9.20
2022-09-30T05:54:03.254Z,9.30
2022-09-30T05:56:31.864Z,9.30
2022-09-30T05:59:00.403Z,9.30
2022-09-30T06:01:29.008Z,9.40
2022-09-30T06:03:57.656Z,9.40
2022-09-30T06:06:26.836Z,9.40
2022-09-30T06:08:55.386Z,9.40
2022-09-30T06:11:25.019Z,9.40
2022-09-30T06:13:53.605Z,9.40
2022-09-30T06:16:23.921Z,9.50
2022-09-30T06:18:52.510Z,9.60
2022-09-30T06:21:22.763Z,9.90
2022-09-30T06:23:51.310Z,10.10
2022-09-30T06:26:19.925Z,10.30
2022-09-30T06:28:48.533Z,10.40
2022-09-30T06:31:17.201Z,10.50
2022-09-30T06:33:46.629Z,10.50
2022-09-30T06:36:15.234Z,10.60
2022-09-30T06:38:43.767Z,10.70
2022-09-30T06:41:13.784Z,10.90
2022-09-30T06:43:45.270Z,11.20
2022-09-30T06:46:18.577Z,11.50
2022-09-30T06:48:43.286Z,11.80
2022-09-30T06:51:11.828Z,12.20
2022-09-30T06:53:40.463Z,12.40
2022-09-30T06:56:09.060Z,12.70
2022-09-30T06:58:37.628Z,13.00
2022-09-30T07:01:07.275Z,13.10
2022-09-30T07:03:36.971Z,13.30
2022-09-30T07:06:07.264Z,13.50
2022-09-30T07:08:38.809Z,13.80
2022-09-30T07:11:16.900Z,14.00
2022-09-30T07:13:46.808Z,14.10
2022-09-30T07:16:16.227Z,14.10
2022-09-30T07:18:45.834Z,14.20
2022-09-30T07:21:16.488Z,14.30
2022-09-30T07:23:47.579Z,14.40
2022-09-30T07:26:21.606Z,14.70
2022-09-30T07:28:51.505Z,14.40
2022-09-30T07:31:38.762Z,14.40
2022-09-30T07:33:54.272Z,14.40
2022-09-30T07:36:31.837Z,14.50
2022-09-30T07:38:57.624Z,14.50
2022-09-30T07:41:29.117Z,14.50
2022-09-30T07:44:02.633Z,14.60
2022-09-30T07:46:33.856Z,14.60
2022-09-30T07:49:04.355Z,14.80
2022-09-30T07:51:35.978Z,14.90
2022-09-30T07:54:16.447Z,15.00
2022-09-30T07:59:17.426Z,15.30
2022-09-30T08:01:46.126Z,15.40
2022-09-30T08:04:16.783Z,15.60
2022-09-30T08:06:48.501Z,15.70
2022-09-30T08:09:19.369Z,15.90
2022-09-30T08:11:48.572Z,16.00
2022-09-30T08:14:20.751Z,16.00
2022-09-30T08:16:49.711Z,15.90
2022-09-30T08:19:21.173Z,16.00
2022-09-30T08:21:50.296Z,16.20
2022-09-30T08:24:18.971Z,16.40
2022-09-30T08:46:59.843Z,16.60
2022-09-30T09:04:33.605Z,17.70
2022-09-30T09:07:36.786Z,18.00
2022-09-30T09:10:09.471Z,18.10
2022-09-30T09:12:42.405Z,18.30
2022-09-30T09:15:28.589Z,18.40
2022-09-30T09:18:22.183Z,18.50
2022-09-30T09:20:31.838Z,18.40
2022-09-30T09:23:01.147Z,18.40
2022-09-30T09:25:29.295Z,18.30
2022-09-30T09:28:01.417Z,18.30
2022-09-30T09:30:30.679Z,18.30
2022-09-30T09:32:59.116Z,18.30
2022-09-30T09:35:37.478Z,18.40
2022-09-30T09:38:31.716Z,18.50
2022-09-30T09:41:19.750Z,18.60
2022-09-30T09:44:06.457Z,18.80
2022-09-30T09:46:40.934Z,18.90
2022-09-30T10:01:54.399Z,19.00
2022-09-30T10:04:29.622Z,19.30
2022-09-30T10:07:00.444Z,19.30
2022-09-30T10:09:34.982Z,19.40
2022-09-30T10:12:15.485Z,19.40
2022-09-30T10:15:01.743Z,19.50
2022-09-30T10:17:35.738Z,19.70
2022-09-30T10:20:19.257Z,19.90
2022-09-30T10:22:48.973Z,20.20
2022-09-30T10:25:23.845Z,20.50
2022-09-30T10:27:58.178Z,20.80
2022-09-30T10:30:44.995Z,20.80
2022-09-30T10:33:22.782Z,20.90
2022-09-30T10:36:06.549Z,21.00
2022-09-30T10:38:36.681Z,21.20
2022-09-30T12:04:31.973Z,21.60
2022-09-30T12:07:13.428Z,21.20
2022-09-30T12:09:43.010Z,21.00
2022-09-30T12:12:16.482Z,21.00
2022-09-30T12:14:44.337Z,20.90
2022-09-30T12:17:13.672Z,20.80
2022-09-30T12:19:43.023Z,20.80
2022-09-30T12:22:12.319Z,20.70
2022-09-30T12:24:41.138Z,20.70
2022-09-30T12:27:10.446Z,20.70
2022-09-30T12:29:57.743Z,20.50
2022-09-30T12:32:27.024Z,20.50
2022-09-30T12:35:14.663Z,20.30
2022-09-30T12:37:44.007Z,20.30
2022-09-30T12:40:29.912Z,20.40
2022-09-30T12:43:15.761Z,20.40
2022-09-30T12:46:00.059Z,20.50
2022-09-30T12:48:30.151Z,20.50
2022-09-30T12:50:58.143Z,20.50
2022-09-30T12:53:27.798Z,20.40
2022-09-30T12:55:57.093Z,20.30
2022-09-30T12:58:30.613Z,20.20
2022-09-30T13:01:00.945Z,20.10
2022-09-30T13:03:28.815Z,20.00
2022-09-30T13:05:57.859Z,19.80
2022-09-30T13:08:27.181Z,19.80
2022-09-30T13:10:56.483Z,19.90
2022-09-30T13:13:32.216Z,20.00
2022-09-30T13:16:03.720Z,20.30
2022-09-30T13:18:33.072Z,20.60
2022-09-30T13:21:08.718Z,20.70
2022-09-30T13:23:45.589Z,20.70
2022-09-30T13:26:34.767Z,20.60
2022-09-30T13:29:04.326Z,20.40
2022-09-30T13:31:36.322Z,20.30
2022-09-30T13:34:06.290Z,20.10
2022-09-30T13:36:40.624Z,20.00
2022-09-30T13:39:30.118Z,19.80
2022-09-30T13:42:13.675Z,19.60
2022-09-30T13:45:07.053Z,19.50
2022-09-30T13:47:53.730Z,19.40
2022-09-30T13:50:34.330Z,19.30
2022-09-30T13:53:05.957Z,19.30
2022-09-30T13:55:45.795Z,19.30
2022-09-30T13:58:33.384Z,19.40
2022-09-30T14:01:19.215Z,19.60
2022-09-30T14:03:48.528Z,19.80
2022-09-30T14:06:33.712Z,20.10
2022-09-30T14:09:03.433Z,20.30
2022-09-30T14:11:41.675Z,20.50
2022-09-30T14:14:16.788Z,20.70
2022-09-30T14:17:05.199Z,20.90
2022-09-30T14:19:35.960Z,21.10
2022-09-30T14:22:05.594Z,21.10
2022-09-30T14:24:37.544Z,21.20
2022-09-30T14:27:21.973Z,21.20
2022-09-30T14:29:54.287Z,21.20
2022-09-30T14:32:23.616Z,21.30
2022-09-30T14:34:51.927Z,21.30
2022-09-30T14:37:21.195Z,21.30
2022-09-30T14:39:49.176Z,21.20
2022-09-30T14:42:19.932Z,21.20
2022-09-30T14:44:49.074Z,21.20
2022-09-30T14:47:17.307Z,21.10
2022-09-30T14:49:45.145Z,21.20
2022-09-30T14:52:30.669Z,21.20
2022-09-30T14:54:58.804Z,21.20
2022-09-30T14:57:27.524Z,21.20
2022-09-30T14:59:57.021Z,21.10
2022-09-30T15:02:24.854Z,21.20
2022-09-30T15:04:57.028Z,21.10
2022-09-30T15:07:23.593Z,21.10
2022-09-30T15:09:52.501Z,21.10
2022-09-30T15:12:22.388Z,21.10
2022-09-30T15:14:51.435Z,21.00
2022-09-30T15:17:20.763Z,20.90
2022-09-30T15:19:50.060Z,21.00
2022-09-30T15:22:20.849Z,20.90
2022-09-30T15:24:50.633Z,20.80
2022-09-30T15:27:30.784Z,20.80
2022-09-30T15:39:05.904Z,20.70
2022-09-30T15:41:52.744Z,20.70
2022-09-30T15:44:42.226Z,20.70
2022-09-30T15:47:23.945Z,20.70
2022-09-30T15:49:50.373Z,20.70
2022-09-30T15:55:51.862Z,20.70
2022-09-30T15:58:52.896Z,20.60
2022-09-30T16:01:31.083Z,20.60
2022-09-30T16:04:01.874Z,20.60
2022-09-30T16:06:39.197Z,20.50
2022-09-30T16:09:08.719Z,20.60
2022-09-30T16:11:42.478Z,20.50
2022-09-30T16:14:12.662Z,20.50
2022-09-30T16:16:40.669Z,20.50
2022-09-30T16:19:21.265Z,20.50
2022-09-30T16:21:52.598Z,20.50
2022-09-30T16:24:28.307Z,20.40
2022-09-30T16:26:58.365Z,20.40
2022-09-30T16:29:27.445Z,20.40
2022-09-30T16:31:59.295Z,20.40
2022-09-30T16:34:31.135Z,20.40
2022-09-30T16:37:15.191Z,20.40
2022-09-30T16:39:43.575Z,20.40
2022-09-30T16:42:15.198Z,20.50
2022-09-30T16:44:45.092Z,20.60
2022-09-30T16:47:15.412Z,20.60
2022-09-30T16:49:45.445Z,20.70
2022-09-30T16:52:15.103Z,20.70
2022-09-30T16:54:44.858Z,20.70
2022-09-30T16:57:17.821Z,20.60
2022-09-30T16:59:49.484Z,20.50
2022-09-30T17:02:19.197Z,20.40
2022-09-30T17:05:01.393Z,20.20
2022-09-30T17:17:02.527Z,19.40
2022-09-30T17:21:51.206Z,18.90
2022-09-30T17:27:52.538Z,18.60
2022-09-30T17:33:30.089Z,18.20
2022-09-30T17:36:17.687Z,18.00
2022-09-30T17:38:52.857Z,17.80
2022-09-30T17:42:08.474Z,17.60
2022-09-30T17:47:31.524Z,17.40
2022-09-30T17:52:55.894Z,17.20
2022-09-30T17:55:24.568Z,17.20
2022-09-30T17:57:54.758Z,17.20
2022-09-30T18:00:24.307Z,17.10
2022-09-30T18:02:54.429Z,17.20
2022-09-30T18:05:25.266Z,17.10
2022-09-30T18:07:59.495Z,17.20
2022-09-30T18:10:30.445Z,17.10
2022-09-30T18:13:12.560Z,17.10
2022-09-30T18:18:23.631Z,17.00
2022-09-30T18:21:19.916Z,17.00
2022-09-30T18:24:24.129Z,17.00
2022-09-30T18:27:23.233Z,17.00
2022-09-30T18:30:14.847Z,17.00
2022-09-30T18:32:51.887Z,17.00
2022-09-30T18:35:26.181Z,16.90
2022-09-30T18:38:09.145Z,16.90
2022-09-30T18:46:23.895Z,16.60
2022-09-30T18:48:54.216Z,16.60
2022-09-30T18:51:26.232Z,16.60
2022-09-30T18:54:01.038Z,16.60
2022-09-30T18:56:44.062Z,16.60
2022-09-30T18:59:23.899Z,16.60
2022-09-30T19:01:52.314Z,16.60
2022-09-30T19:04:27.499Z,16.50
2022-09-30T19:06:58.195Z,16.50
2022-09-30T19:12:34.883Z,16.50
2022-09-30T19:15:05.267Z,16.50
2022-09-30T19:17:33.819Z,16.40
2022-09-30T19:20:26.080Z,16.40
2022-09-30T19:22:43.881Z,16.30
2022-09-30T19:25:14.182Z,16.30
2022-09-30T19:27:46.689Z,16.20
2022-09-30T19:30:15.813Z,16.20
2022-09-30T19:32:44.389Z,16.20
2022-09-30T19:35:13.579Z,16.10
2022-09-30T19:37:56.134Z,16.10
2022-09-30T19:40:21.467Z,16.00
2022-09-30T19:42:47.972Z,16.00
2022-09-30T19:45:17.556Z,15.90
2022-09-30T19:47:48.328Z,15.90
2022-09-30T19:50:16.898Z,15.80
2022-09-30T19:52:56.316Z,15.80
2022-09-30T19:55:17.041Z,15.70
2022-09-30T19:57:45.720Z,15.70
2022-09-30T20:00:14.477Z,15.70
2022-09-30T20:02:43.305Z,15.60
2022-09-30T20:05:12.522Z,15.50
2022-09-30T20:07:41.346Z,15.50
2022-09-30T20:10:10.404Z,15.40
2022-09-30T20:12:39.110Z,15.40
2022-09-30T20:15:25.835Z,15.30
2022-09-30T20:17:56.342Z,15.30
2022-09-30T20:20:37.717Z,15.20
2022-09-30T20:23:06.897Z,15.20
2022-09-30T20:25:36.974Z,15.20
2022-09-30T20:28:07.420Z,15.10
2022-09-30T20:30:43.972Z,15.10
2022-09-30T20:33:26.108Z,15.00
2022-09-30T20:36:13.092Z,15.00
2022-09-30T20:38:41.826Z,14.90
2022-09-30T20:41:10.428Z,14.80
2022-09-30T20:43:52.554Z,14.70
2022-09-30T20:46:17.102Z,14.70
2022-09-30T20:48:50.534Z,14.60
2022-09-30T20:51:23.774Z,14.50
2022-09-30T20:53:53.940Z,14.50
2022-09-30T20:56:24.996Z,14.40
2022-09-30T20:59:15.323Z,14.40
2022-09-30T21:01:35.278Z,14.40
2022-09-30T21:04:06.245Z,14.40
2022-09-30T21:06:34.923Z,14.40
2022-09-30T21:09:03.696Z,14.40
2022-09-30T21:11:32.749Z,14.30
2022-09-30T21:14:03.296Z,14.30
2022-09-30T21:16:31.924Z,14.30
2022-09-30T21:19:00.460Z,13.90
2022-09-30T21:21:29.037Z,14.40
2022-09-30T21:23:59.829Z,14.40
2022-09-30T21:26:29.467Z,14.40
2022-09-30T21:28:58.366Z,14.40
2022-09-30T21:31:28.506Z,14.40
2022-09-30T21:34:01.372Z,14.40
2022-09-30T21:36:30.383Z,14.40
2022-09-30T21:39:04.288Z,14.40
2022-09-30T21:41:34.239Z,14.60
2022-09-30T21:44:04.322Z,14.50
2022-09-30T21:46:33.713Z,14.50
2022-09-30T21:49:09.749Z,14.50
2022-09-30T21:51:39.138Z,14.50
2022-09-30T21:54:17.142Z,14.40
2022-09-30T21:56:50.860Z,14.40
2022-09-30T21:59:19.926Z,14.40
2022-09-30T22:04:59.564Z,14.40
2022-09-30T22:07:38.944Z,14.40
2022-09-30T22:10:37.496Z,14.30
2022-09-30T22:13:06.136Z,14.30
2022-09-30T22:15:45.185Z,14.40
2022-09-30T22:18:52.152Z,14.40
2022-09-30T22:21:29.100Z,14.30
2022-09-30T22:24:27.915Z,14.40
2022-09-30T22:27:21.479Z,14.40
2022-09-30T22:30:06.579Z,14.40
2022-09-30T22:32:35.831Z,14.40
2022-09-30T22:35:29.454Z,14.40
2022-09-30T22:38:16.213Z,14.30
2022-09-30T22:40:45.651Z,14.30
2022-09-30T22:43:16.403Z,14.30
2022-09-30T22:45:46.495Z,14.40
2022-09-30T22:48:15.130Z,14.30
2022-09-30T22:50:47.957Z,14.30
2022-09-30T22:53:23.188Z,14.30
2022-09-30T22:55:48.902Z,14.30
2022-09-30T22:58:17.447Z,14.30
2022-09-30T23:00:59.438Z,14.20
2022-09-30T23:03:31.336Z,14.20
2022-09-30T23:06:06.164Z,14.10
2022-09-30T23:08:38.548Z,14.10
2022-09-30T23:11:07.115Z,14.00
2022-09-30T23:13:35.937Z,14.00
2022-09-30T23:16:05.632Z,14.00
2022-09-30T23:18:35.500Z,14.00
2022-09-30T23:21:09.862Z,14.00
2022-09-30T23:23:40.259Z,13.90
2022-09-30T23:26:16.905Z,13.90
2022-09-30T23:28:46.189Z,13.90
2022-09-30T23:31:17.226Z,13.90
2022-09-30T23:33:51.770Z,13.90
2022-09-30T23:36:25.174Z,13.90
2022-09-30T23:38:54.345Z,13.90
2022-09-30T23:41:23.385Z,13.90
2022-09-30T23:43:52.208Z,14.00
2022-09-30T23:46:20.799Z,13.90
2022-09-30T23:48:49.370Z,14.00
2022-09-30T23:51:19.425Z,14.00
2022-09-30T23:53:49.913Z,14.00
2022-09-30T23:56:28.691Z,14.00
2022-09-30T23:58:58.903Z,14.00
